N1CU KLOT-KDAL
Flight info
| Callsign | N1CU |
|---|---|
| Flight time | 1h 53m |
| Altitude | 38000 |
| Route | ADELL8 ARLYN STL FSM CAMAL HIBIL3 |
| Aircraft | CL60/M-SBDE1E2E3FGHIJ1J4J5J7M3RWXYZ/LB1V1D1 |
Departure
| Time | 2026-05-08 02:02 |
|---|---|
| Airport | Lewis University Airport (KLOT) |
Arrival
| Time | 2026-05-08 03:55 |
|---|---|
| Airport | Dallas Love Field (KDAL) |
| Time | Latitude | Longitude | Altitude | Speed | Heading |
|---|---|---|---|---|---|
| 2026-05-08 01:42 | 41.60509 | -88.09159 | 672 ft | 0 kts | 276° |
| 2026-05-08 01:57 | 41.60536 | -88.09170 | 672 ft | 8 kts | 354° |
| 2026-05-08 01:57 | 41.60596 | -88.09177 | 672 ft | 7 kts | 355° |
| 2026-05-08 01:58 | 41.60665 | -88.09176 | 671 ft | 12 kts | 0° |
| 2026-05-08 01:58 | 41.60729 | -88.09226 | 671 ft | 12 kts | 276° |
| 2026-05-08 01:58 | 41.60725 | -88.09359 | 671 ft | 15 kts | 267° |
| 2026-05-08 01:58 | 41.60719 | -88.09521 | 671 ft | 18 kts | 266° |
| 2026-05-08 01:59 | 41.60724 | -88.09655 | 672 ft | 12 kts | 312° |
| 2026-05-08 01:59 | 41.60825 | -88.09644 | 670 ft | 17 kts | 12° |
| 2026-05-08 01:59 | 41.60959 | -88.09602 | 668 ft | 21 kts | 15° |
| 2026-05-08 01:59 | 41.61122 | -88.09547 | 664 ft | 23 kts | 14° |
| 2026-05-08 02:00 | 41.61261 | -88.09501 | 660 ft | 22 kts | 13° |
| 2026-05-08 02:00 | 41.61416 | -88.09451 | 655 ft | 19 kts | 14° |
| 2026-05-08 02:00 | 41.61560 | -88.09405 | 651 ft | 21 kts | 14° |
| 2026-05-08 02:00 | 41.61636 | -88.09463 | 648 ft | 15 kts | 284° |
| 2026-05-08 02:01 | 41.61622 | -88.09538 | 649 ft | 7 kts | 196° |
| 2026-05-08 02:01 | 41.61607 | -88.09543 | 649 ft | 4 kts | 193° |
| 2026-05-08 02:01 | 41.61168 | -88.09684 | 663 ft | 120 kts | 194° |
| 2026-05-08 02:01 | 41.60125 | -88.10020 | 1018 ft | 177 kts | 194° |
| 2026-05-08 02:02 | 41.58864 | -88.10390 | 2009 ft | 202 kts | 194° |
| 2026-05-08 02:02 | 41.57350 | -88.10764 | 2846 ft | 240 kts | 197° |
| 2026-05-08 02:02 | 41.55716 | -88.11421 | 4089 ft | 257 kts | 202° |
| 2026-05-08 02:02 | 41.54011 | -88.12173 | 5581 ft | 267 kts | 203° |
| 2026-05-08 02:03 | 41.52265 | -88.12935 | 7178 ft | 271 kts | 204° |
| 2026-05-08 02:03 | 41.50494 | -88.13707 | 8662 ft | 278 kts | 205° |
| 2026-05-08 02:03 | 41.48658 | -88.14507 | 10102 ft | 286 kts | 206° |
| 2026-05-08 02:03 | 41.46794 | -88.15314 | 11561 ft | 291 kts | 205° |
| 2026-05-08 02:04 | 41.44852 | -88.16161 | 12716 ft | 304 kts | 205° |
| 2026-05-08 02:04 | 41.42793 | -88.17055 | 13811 ft | 318 kts | 205° |
| 2026-05-08 02:04 | 41.40678 | -88.17968 | 14950 ft | 327 kts | 205° |
| 2026-05-08 02:04 | 41.38519 | -88.18917 | 16004 ft | 336 kts | 206° |
| 2026-05-08 02:05 | 41.36279 | -88.19926 | 17035 ft | 344 kts | 207° |
| 2026-05-08 02:05 | 41.34011 | -88.20946 | 17998 ft | 352 kts | 207° |
| 2026-05-08 02:05 | 41.31674 | -88.21996 | 18912 ft | 360 kts | 207° |
| 2026-05-08 02:05 | 41.29274 | -88.23071 | 19864 ft | 365 kts | 208° |
| 2026-05-08 02:06 | 41.26890 | -88.24137 | 20797 ft | 369 kts | 208° |
| 2026-05-08 02:06 | 41.24435 | -88.25236 | 21669 ft | 374 kts | 209° |
| 2026-05-08 02:06 | 41.21954 | -88.26355 | 22510 ft | 379 kts | 209° |
| 2026-05-08 02:06 | 41.19481 | -88.27470 | 23283 ft | 384 kts | 210° |
| 2026-05-08 02:07 | 41.16944 | -88.28615 | 24060 ft | 389 kts | 210° |
| 2026-05-08 02:07 | 41.14383 | -88.29765 | 24965 ft | 390 kts | 210° |
| 2026-05-08 02:07 | 41.11816 | -88.30917 | 25776 ft | 392 kts | 210° |
| 2026-05-08 02:07 | 41.09216 | -88.32083 | 26578 ft | 394 kts | 210° |
| 2026-05-08 02:08 | 41.06615 | -88.33249 | 27346 ft | 395 kts | 210° |
| 2026-05-08 02:08 | 41.04011 | -88.34417 | 27994 ft | 399 kts | 210° |
| 2026-05-08 02:08 | 41.01384 | -88.35593 | 28676 ft | 400 kts | 210° |
| 2026-05-08 02:08 | 40.98716 | -88.36788 | 29268 ft | 404 kts | 210° |
| 2026-05-08 02:09 | 40.96051 | -88.37980 | 29858 ft | 406 kts | 209° |
| 2026-05-08 02:09 | 40.93376 | -88.39175 | 30436 ft | 408 kts | 209° |
| 2026-05-08 02:09 | 40.90669 | -88.40384 | 30933 ft | 412 kts | 209° |
| 2026-05-08 02:09 | 40.87940 | -88.41601 | 31439 ft | 414 kts | 210° |
| 2026-05-08 02:10 | 40.85192 | -88.42828 | 31880 ft | 417 kts | 210° |
| 2026-05-08 02:10 | 40.82533 | -88.44224 | 32275 ft | 411 kts | 216° |
| 2026-05-08 02:10 | 40.80040 | -88.46055 | 32652 ft | 404 kts | 223° |
| 2026-05-08 02:10 | 40.77818 | -88.48214 | 33044 ft | 399 kts | 229° |
| 2026-05-08 02:11 | 40.75657 | -88.50555 | 33443 ft | 400 kts | 229° |
| 2026-05-08 02:11 | 40.73508 | -88.52882 | 33759 ft | 402 kts | 229° |
| 2026-05-08 02:11 | 40.71354 | -88.55207 | 34207 ft | 401 kts | 229° |
| 2026-05-08 02:11 | 40.69202 | -88.57526 | 34595 ft | 398 kts | 229° |
| 2026-05-08 02:12 | 40.67080 | -88.59813 | 34910 ft | 395 kts | 229° |
| 2026-05-08 02:12 | 40.64943 | -88.62114 | 35237 ft | 393 kts | 229° |
| 2026-05-08 02:12 | 40.62841 | -88.64376 | 35518 ft | 392 kts | 229° |
| 2026-05-08 02:12 | 40.60730 | -88.66650 | 35769 ft | 393 kts | 228° |
| 2026-05-08 02:13 | 40.58602 | -88.68936 | 36112 ft | 392 kts | 229° |
| 2026-05-08 02:13 | 40.57603 | -88.70010 | 36309 ft | 391 kts | 229° |
| 2026-05-08 02:13 | 40.55381 | -88.72395 | 36685 ft | 390 kts | 229° |
| 2026-05-08 02:14 | 40.53288 | -88.74641 | 37033 ft | 389 kts | 229° |
| 2026-05-08 02:14 | 40.51203 | -88.76874 | 37375 ft | 388 kts | 229° |
| 2026-05-08 02:14 | 40.49100 | -88.79129 | 37642 ft | 388 kts | 229° |
| 2026-05-08 02:14 | 40.46993 | -88.81385 | 37889 ft | 389 kts | 229° |
| 2026-05-08 02:15 | 40.42736 | -88.85945 | 37957 ft | 401 kts | 228° |
| 2026-05-08 02:15 | 40.38358 | -88.90625 | 37961 ft | 411 kts | 228° |
| 2026-05-08 02:16 | 40.33894 | -88.95384 | 37963 ft | 420 kts | 228° |
| 2026-05-08 02:16 | 40.29310 | -89.00259 | 37964 ft | 427 kts | 228° |
| 2026-05-08 02:17 | 40.24686 | -89.05163 | 37965 ft | 429 kts | 228° |
| 2026-05-08 02:17 | 40.20029 | -89.10091 | 37979 ft | 427 kts | 228° |
| 2026-05-08 02:18 | 40.15419 | -89.14962 | 37969 ft | 426 kts | 228° |
| 2026-05-08 02:18 | 40.10791 | -89.19846 | 37968 ft | 426 kts | 228° |
| 2026-05-08 02:19 | 40.06176 | -89.24707 | 37969 ft | 426 kts | 228° |
| 2026-05-08 02:19 | 40.01564 | -89.29555 | 37971 ft | 424 kts | 228° |
| 2026-05-08 02:20 | 39.96972 | -89.34376 | 37969 ft | 423 kts | 228° |
| 2026-05-08 02:20 | 39.92379 | -89.39189 | 37968 ft | 423 kts | 228° |
| 2026-05-08 02:21 | 39.87770 | -89.44011 | 37971 ft | 422 kts | 229° |
| 2026-05-08 02:21 | 39.83187 | -89.48798 | 37973 ft | 422 kts | 229° |
| 2026-05-08 02:22 | 39.78601 | -89.53579 | 37974 ft | 421 kts | 228° |
| 2026-05-08 02:22 | 39.74007 | -89.58359 | 37975 ft | 420 kts | 229° |
| 2026-05-08 02:23 | 39.69474 | -89.63068 | 37979 ft | 419 kts | 229° |
| 2026-05-08 02:23 | 39.64890 | -89.67821 | 37978 ft | 418 kts | 228° |
| 2026-05-08 02:24 | 39.60344 | -89.72527 | 37979 ft | 418 kts | 228° |
| 2026-05-08 02:24 | 39.55819 | -89.77204 | 37983 ft | 418 kts | 228° |
| 2026-05-08 02:25 | 39.51282 | -89.81886 | 37984 ft | 418 kts | 228° |
| 2026-05-08 02:25 | 39.46710 | -89.86594 | 37989 ft | 417 kts | 228° |
| 2026-05-08 02:26 | 39.42174 | -89.91257 | 37991 ft | 416 kts | 228° |
| 2026-05-08 02:26 | 39.37646 | -89.95904 | 37987 ft | 415 kts | 228° |
| 2026-05-08 02:27 | 39.33120 | -90.00542 | 37998 ft | 415 kts | 229° |
| 2026-05-08 02:27 | 39.28594 | -90.05170 | 38004 ft | 414 kts | 229° |
| 2026-05-08 02:28 | 39.24085 | -90.09775 | 37996 ft | 414 kts | 228° |
| 2026-05-08 02:28 | 39.19557 | -90.14390 | 37993 ft | 412 kts | 229° |
| 2026-05-08 02:29 | 39.15071 | -90.18954 | 37990 ft | 411 kts | 229° |
| 2026-05-08 02:29 | 39.10586 | -90.23510 | 37990 ft | 410 kts | 229° |
| 2026-05-08 02:30 | 39.06073 | -90.28088 | 37983 ft | 410 kts | 229° |
| 2026-05-08 02:30 | 39.01605 | -90.32612 | 37995 ft | 409 kts | 229° |
| 2026-05-08 02:31 | 38.97128 | -90.37137 | 37996 ft | 408 kts | 229° |
| 2026-05-08 02:31 | 38.92686 | -90.41618 | 37999 ft | 406 kts | 229° |
| 2026-05-08 02:32 | 38.88218 | -90.46121 | 37996 ft | 406 kts | 229° |
| 2026-05-08 02:32 | 38.83896 | -90.50757 | 37995 ft | 401 kts | 232° |
| 2026-05-08 02:33 | 38.79764 | -90.55581 | 37996 ft | 401 kts | 232° |
| 2026-05-08 02:33 | 38.75641 | -90.60376 | 37999 ft | 400 kts | 232° |
| 2026-05-08 02:34 | 38.71521 | -90.65156 | 38002 ft | 398 kts | 232° |
| 2026-05-08 02:34 | 38.67418 | -90.69908 | 38005 ft | 399 kts | 231° |
| 2026-05-08 02:35 | 38.63296 | -90.74671 | 38009 ft | 398 kts | 232° |
| 2026-05-08 02:35 | 38.59179 | -90.79421 | 38007 ft | 398 kts | 232° |
| 2026-05-08 02:36 | 38.55079 | -90.84141 | 38005 ft | 397 kts | 231° |
| 2026-05-08 02:36 | 38.50974 | -90.88860 | 38010 ft | 397 kts | 231° |
| 2026-05-08 02:37 | 38.46886 | -90.93549 | 38013 ft | 396 kts | 232° |
| 2026-05-08 02:37 | 38.42788 | -90.98242 | 38013 ft | 395 kts | 232° |
| 2026-05-08 02:38 | 38.38692 | -91.02927 | 38017 ft | 395 kts | 232° |
| 2026-05-08 02:38 | 38.34626 | -91.07568 | 38018 ft | 394 kts | 231° |
| 2026-05-08 02:39 | 38.30545 | -91.12220 | 38020 ft | 394 kts | 232° |
| 2026-05-08 02:39 | 38.26459 | -91.16869 | 38022 ft | 393 kts | 232° |
| 2026-05-08 02:40 | 38.22376 | -91.21508 | 38027 ft | 392 kts | 232° |
| 2026-05-08 02:40 | 38.18314 | -91.26115 | 38023 ft | 392 kts | 231° |
| 2026-05-08 02:41 | 38.14247 | -91.30720 | 38037 ft | 391 kts | 232° |
| 2026-05-08 02:41 | 38.10180 | -91.35320 | 38023 ft | 392 kts | 231° |
| 2026-05-08 02:42 | 38.06099 | -91.39927 | 38028 ft | 391 kts | 231° |
| 2026-05-08 02:42 | 38.02033 | -91.44509 | 38024 ft | 392 kts | 232° |
| 2026-05-08 02:43 | 37.97961 | -91.49089 | 38016 ft | 389 kts | 231° |
| 2026-05-08 02:43 | 37.93926 | -91.53622 | 38018 ft | 388 kts | 232° |
| 2026-05-08 02:44 | 37.89893 | -91.58147 | 38018 ft | 387 kts | 231° |
| 2026-05-08 02:44 | 37.85842 | -91.62684 | 38025 ft | 386 kts | 231° |
| 2026-05-08 02:45 | 37.81826 | -91.67176 | 38030 ft | 386 kts | 231° |
| 2026-05-08 02:45 | 37.77785 | -91.71690 | 38035 ft | 386 kts | 231° |
| 2026-05-08 02:46 | 37.73756 | -91.76183 | 38041 ft | 387 kts | 231° |
| 2026-05-08 02:46 | 37.69729 | -91.80663 | 38040 ft | 385 kts | 231° |
| 2026-05-08 02:47 | 37.65729 | -91.85109 | 38043 ft | 384 kts | 231° |
| 2026-05-08 02:47 | 37.61696 | -91.89586 | 38043 ft | 385 kts | 231° |
| 2026-05-08 02:48 | 37.57681 | -91.94035 | 38048 ft | 383 kts | 232° |
| 2026-05-08 02:48 | 37.53672 | -91.98470 | 38051 ft | 383 kts | 231° |
| 2026-05-08 02:49 | 37.49690 | -92.02868 | 38051 ft | 382 kts | 231° |
| 2026-05-08 02:49 | 37.45667 | -92.07306 | 38046 ft | 381 kts | 231° |
| 2026-05-08 02:50 | 37.41698 | -92.11678 | 38045 ft | 381 kts | 231° |
| 2026-05-08 02:50 | 37.37691 | -92.16085 | 38046 ft | 381 kts | 231° |
| 2026-05-08 02:51 | 37.33715 | -92.20451 | 38045 ft | 380 kts | 231° |
| 2026-05-08 02:51 | 37.29719 | -92.24834 | 38053 ft | 380 kts | 232° |
| 2026-05-08 02:52 | 37.25763 | -92.29166 | 38052 ft | 379 kts | 231° |
| 2026-05-08 02:52 | 37.21782 | -92.33517 | 38055 ft | 378 kts | 231° |
| 2026-05-08 02:53 | 37.17808 | -92.37855 | 38052 ft | 377 kts | 231° |
| 2026-05-08 02:53 | 37.13845 | -92.42176 | 38058 ft | 377 kts | 231° |
| 2026-05-08 02:54 | 37.09883 | -92.46489 | 38055 ft | 376 kts | 231° |
| 2026-05-08 02:54 | 37.05931 | -92.50784 | 38059 ft | 374 kts | 231° |
| 2026-05-08 02:55 | 37.00407 | -92.56779 | 38059 ft | 373 kts | 231° |
| 2026-05-08 02:56 | 36.96494 | -92.61018 | 38062 ft | 374 kts | 232° |
| 2026-05-08 02:56 | 36.92557 | -92.65278 | 38059 ft | 373 kts | 231° |
| 2026-05-08 02:57 | 36.88605 | -92.69552 | 38057 ft | 374 kts | 231° |
| 2026-05-08 02:57 | 36.84672 | -92.73794 | 38064 ft | 374 kts | 230° |
| 2026-05-08 02:58 | 36.80736 | -92.78033 | 38060 ft | 373 kts | 230° |
| 2026-05-08 02:58 | 36.76797 | -92.82269 | 38059 ft | 373 kts | 230° |
| 2026-05-08 02:59 | 36.72873 | -92.86484 | 38057 ft | 373 kts | 230° |
| 2026-05-08 02:59 | 36.68935 | -92.90708 | 38060 ft | 373 kts | 230° |
| 2026-05-08 03:00 | 36.65002 | -92.94921 | 38055 ft | 373 kts | 231° |
| 2026-05-08 03:00 | 36.61047 | -92.99151 | 38058 ft | 372 kts | 230° |
| 2026-05-08 03:01 | 36.57122 | -93.03344 | 38057 ft | 372 kts | 230° |
| 2026-05-08 03:01 | 36.53191 | -93.07537 | 38053 ft | 371 kts | 230° |
| 2026-05-08 03:02 | 36.49278 | -93.11705 | 38054 ft | 370 kts | 230° |
| 2026-05-08 03:02 | 36.45381 | -93.15850 | 38049 ft | 370 kts | 230° |
| 2026-05-08 03:03 | 36.41473 | -93.20002 | 38055 ft | 370 kts | 230° |
| 2026-05-08 03:03 | 36.37547 | -93.24168 | 38062 ft | 369 kts | 230° |
| 2026-05-08 03:04 | 36.33665 | -93.28281 | 38062 ft | 368 kts | 231° |
| 2026-05-08 03:04 | 36.29773 | -93.32398 | 38068 ft | 367 kts | 230° |
| 2026-05-08 03:05 | 36.25874 | -93.36520 | 38073 ft | 367 kts | 230° |
| 2026-05-08 03:05 | 36.22002 | -93.40606 | 38079 ft | 367 kts | 230° |
| 2026-05-08 03:06 | 36.18108 | -93.44710 | 38082 ft | 367 kts | 230° |
| 2026-05-08 03:06 | 36.14240 | -93.48781 | 38082 ft | 366 kts | 230° |
| 2026-05-08 03:07 | 36.10341 | -93.52879 | 38076 ft | 366 kts | 230° |
| 2026-05-08 03:07 | 36.06456 | -93.56959 | 38066 ft | 367 kts | 230° |
| 2026-05-08 03:08 | 36.02571 | -93.61031 | 38070 ft | 368 kts | 229° |
| 2026-05-08 03:08 | 35.98660 | -93.65126 | 38076 ft | 368 kts | 230° |
| 2026-05-08 03:09 | 35.94736 | -93.69229 | 38075 ft | 369 kts | 229° |
| 2026-05-08 03:09 | 35.90826 | -93.73311 | 38076 ft | 369 kts | 229° |
| 2026-05-08 03:10 | 35.86900 | -93.77405 | 38074 ft | 369 kts | 230° |
| 2026-05-08 03:10 | 35.82966 | -93.81503 | 38073 ft | 370 kts | 230° |
| 2026-05-08 03:11 | 35.79031 | -93.85595 | 38077 ft | 370 kts | 229° |
| 2026-05-08 03:11 | 35.75087 | -93.89690 | 38077 ft | 370 kts | 229° |
| 2026-05-08 03:12 | 35.71154 | -93.93770 | 38073 ft | 370 kts | 230° |
| 2026-05-08 03:12 | 35.67218 | -93.97848 | 38067 ft | 372 kts | 230° |
| 2026-05-08 03:13 | 35.63256 | -94.01946 | 38065 ft | 372 kts | 229° |
| 2026-05-08 03:13 | 35.59304 | -94.06029 | 38064 ft | 372 kts | 229° |
| 2026-05-08 03:14 | 35.55336 | -94.10124 | 38061 ft | 373 kts | 229° |
| 2026-05-08 03:14 | 35.51364 | -94.14217 | 38058 ft | 373 kts | 229° |
| 2026-05-08 03:15 | 35.47397 | -94.18298 | 38059 ft | 372 kts | 230° |
| 2026-05-08 03:15 | 35.43424 | -94.22382 | 38053 ft | 373 kts | 229° |
| 2026-05-08 03:16 | 35.39408 | -94.26500 | 38056 ft | 374 kts | 229° |
| 2026-05-08 03:16 | 35.35083 | -94.30206 | 38054 ft | 382 kts | 223° |
| 2026-05-08 03:17 | 35.30628 | -94.33799 | 38056 ft | 383 kts | 224° |
| 2026-05-08 03:17 | 35.26163 | -94.37400 | 38054 ft | 383 kts | 224° |
| 2026-05-08 03:18 | 35.21728 | -94.40974 | 38051 ft | 382 kts | 224° |
| 2026-05-08 03:18 | 35.17288 | -94.44552 | 38051 ft | 382 kts | 224° |
| 2026-05-08 03:19 | 35.12828 | -94.48141 | 38052 ft | 382 kts | 224° |
| 2026-05-08 03:19 | 35.08376 | -94.51723 | 38055 ft | 383 kts | 223° |
| 2026-05-08 03:20 | 35.03907 | -94.55315 | 38053 ft | 384 kts | 224° |
| 2026-05-08 03:20 | 34.99445 | -94.58895 | 38051 ft | 384 kts | 224° |
| 2026-05-08 03:21 | 34.95002 | -94.62457 | 38047 ft | 383 kts | 224° |
| 2026-05-08 03:21 | 34.90511 | -94.66054 | 38049 ft | 384 kts | 224° |
| 2026-05-08 03:22 | 34.86018 | -94.69649 | 38052 ft | 385 kts | 224° |
| 2026-05-08 03:22 | 34.81559 | -94.73209 | 38055 ft | 384 kts | 224° |
| 2026-05-08 03:23 | 34.77074 | -94.76789 | 38058 ft | 386 kts | 223° |
| 2026-05-08 03:23 | 34.72566 | -94.80380 | 38058 ft | 386 kts | 223° |
| 2026-05-08 03:24 | 34.68229 | -94.84163 | 38053 ft | 379 kts | 228° |
| 2026-05-08 03:24 | 34.64111 | -94.88219 | 38064 ft | 380 kts | 228° |
| 2026-05-08 03:25 | 34.59990 | -94.92264 | 38061 ft | 381 kts | 228° |
| 2026-05-08 03:25 | 34.55874 | -94.96294 | 38062 ft | 380 kts | 227° |
| 2026-05-08 03:26 | 34.51736 | -95.00337 | 38065 ft | 381 kts | 228° |
| 2026-05-08 03:26 | 34.47613 | -95.04363 | 38061 ft | 382 kts | 227° |
| 2026-05-08 03:27 | 34.43474 | -95.08395 | 38056 ft | 382 kts | 227° |
| 2026-05-08 03:27 | 34.39331 | -95.12424 | 38025 ft | 382 kts | 227° |
| 2026-05-08 03:27 | 34.37245 | -95.14453 | 37625 ft | 385 kts | 226° |
| 2026-05-08 03:28 | 34.35192 | -95.16443 | 37149 ft | 378 kts | 227° |
| 2026-05-08 03:28 | 34.33131 | -95.18440 | 36667 ft | 376 kts | 227° |
| 2026-05-08 03:28 | 34.31088 | -95.20421 | 36193 ft | 375 kts | 226° |
| 2026-05-08 03:28 | 34.29071 | -95.22382 | 35708 ft | 374 kts | 227° |
| 2026-05-08 03:29 | 34.27063 | -95.24360 | 35224 ft | 375 kts | 227° |
| 2026-05-08 03:29 | 34.25028 | -95.26366 | 34722 ft | 376 kts | 226° |
| 2026-05-08 03:29 | 34.23008 | -95.28354 | 34225 ft | 377 kts | 226° |
| 2026-05-08 03:29 | 34.20981 | -95.30349 | 33727 ft | 379 kts | 225° |
| 2026-05-08 03:30 | 34.16871 | -95.34386 | 32716 ft | 379 kts | 225° |
| 2026-05-08 03:30 | 34.12826 | -95.38350 | 31721 ft | 372 kts | 226° |
| 2026-05-08 03:31 | 34.08825 | -95.42269 | 30741 ft | 369 kts | 226° |
| 2026-05-08 03:31 | 34.04852 | -95.46156 | 29774 ft | 366 kts | 227° |
| 2026-05-08 03:32 | 34.02885 | -95.48077 | 29282 ft | 365 kts | 228° |
| 2026-05-08 03:32 | 34.00908 | -95.50009 | 28811 ft | 364 kts | 228° |
| 2026-05-08 03:32 | 33.98949 | -95.51917 | 28315 ft | 364 kts | 228° |
| 2026-05-08 03:32 | 33.96958 | -95.53827 | 27840 ft | 363 kts | 227° |
| 2026-05-08 03:33 | 33.94980 | -95.55720 | 27349 ft | 362 kts | 227° |
| 2026-05-08 03:33 | 33.92994 | -95.57620 | 26864 ft | 362 kts | 227° |
| 2026-05-08 03:33 | 33.91019 | -95.59509 | 26382 ft | 362 kts | 226° |
| 2026-05-08 03:33 | 33.89051 | -95.61397 | 25907 ft | 362 kts | 226° |
| 2026-05-08 03:34 | 33.87059 | -95.63316 | 25418 ft | 362 kts | 226° |
| 2026-05-08 03:34 | 33.85103 | -95.65197 | 24940 ft | 362 kts | 226° |
| 2026-05-08 03:34 | 33.83099 | -95.67125 | 24455 ft | 362 kts | 225° |
| 2026-05-08 03:34 | 33.81153 | -95.68993 | 23978 ft | 359 kts | 225° |
| 2026-05-08 03:35 | 33.79224 | -95.70843 | 23503 ft | 354 kts | 225° |
| 2026-05-08 03:35 | 33.77297 | -95.72692 | 23032 ft | 353 kts | 225° |
| 2026-05-08 03:35 | 33.75365 | -95.74546 | 22561 ft | 352 kts | 225° |
| 2026-05-08 03:35 | 33.73457 | -95.76375 | 22095 ft | 351 kts | 225° |
| 2026-05-08 03:36 | 33.71566 | -95.78186 | 21635 ft | 349 kts | 225° |
| 2026-05-08 03:36 | 33.69614 | -95.80056 | 21160 ft | 347 kts | 225° |
| 2026-05-08 03:36 | 33.67718 | -95.81870 | 20694 ft | 344 kts | 225° |
| 2026-05-08 03:36 | 33.65871 | -95.83635 | 20247 ft | 343 kts | 224° |
| 2026-05-08 03:37 | 33.64013 | -95.85412 | 19789 ft | 341 kts | 224° |
| 2026-05-08 03:37 | 33.62149 | -95.87193 | 19336 ft | 339 kts | 224° |
| 2026-05-08 03:37 | 33.60321 | -95.88937 | 18887 ft | 337 kts | 223° |
| 2026-05-08 03:37 | 33.58490 | -95.90685 | 18447 ft | 335 kts | 224° |
| 2026-05-08 03:38 | 33.56662 | -95.92429 | 18004 ft | 333 kts | 223° |
| 2026-05-08 03:38 | 33.54857 | -95.94150 | 17488 ft | 332 kts | 223° |
| 2026-05-08 03:38 | 33.53061 | -95.95860 | 17072 ft | 329 kts | 223° |
| 2026-05-08 03:38 | 33.51279 | -95.97558 | 16639 ft | 329 kts | 223° |
| 2026-05-08 03:39 | 33.49488 | -95.99263 | 16199 ft | 327 kts | 223° |
| 2026-05-08 03:39 | 33.47700 | -96.00964 | 15762 ft | 326 kts | 223° |
| 2026-05-08 03:39 | 33.45923 | -96.02654 | 15337 ft | 325 kts | 223° |
| 2026-05-08 03:39 | 33.44162 | -96.04333 | 14904 ft | 323 kts | 223° |
| 2026-05-08 03:40 | 33.42395 | -96.06016 | 14472 ft | 322 kts | 223° |
| 2026-05-08 03:40 | 33.40642 | -96.07686 | 14050 ft | 322 kts | 224° |
| 2026-05-08 03:40 | 33.38888 | -96.09354 | 13616 ft | 320 kts | 223° |
| 2026-05-08 03:40 | 33.37163 | -96.10995 | 13197 ft | 319 kts | 223° |
| 2026-05-08 03:41 | 33.35424 | -96.12646 | 12774 ft | 318 kts | 223° |
| 2026-05-08 03:41 | 33.33707 | -96.14311 | 12350 ft | 314 kts | 226° |
| 2026-05-08 03:41 | 33.32429 | -96.16303 | 11943 ft | 298 kts | 246° |
| 2026-05-08 03:41 | 33.31616 | -96.18541 | 11545 ft | 289 kts | 249° |
| 2026-05-08 03:42 | 33.30844 | -96.20736 | 11163 ft | 282 kts | 249° |
| 2026-05-08 03:42 | 33.30098 | -96.22844 | 10801 ft | 276 kts | 249° |
| 2026-05-08 03:42 | 33.29354 | -96.24944 | 10434 ft | 270 kts | 249° |
| 2026-05-08 03:42 | 33.28632 | -96.26984 | 10084 ft | 264 kts | 248° |
| 2026-05-08 03:43 | 33.27918 | -96.28996 | 9730 ft | 264 kts | 248° |
| 2026-05-08 03:43 | 33.27198 | -96.31023 | 9381 ft | 265 kts | 248° |
| 2026-05-08 03:43 | 33.26467 | -96.33047 | 9070 ft | 265 kts | 245° |
| 2026-05-08 03:43 | 33.25432 | -96.34888 | 8979 ft | 266 kts | 234° |
| 2026-05-08 03:44 | 33.24282 | -96.36641 | 8932 ft | 269 kts | 234° |
| 2026-05-08 03:44 | 33.23130 | -96.38427 | 8531 ft | 272 kts | 235° |
| 2026-05-08 03:44 | 33.22047 | -96.40233 | 8086 ft | 270 kts | 236° |
| 2026-05-08 03:44 | 33.20968 | -96.42052 | 7736 ft | 264 kts | 236° |
| 2026-05-08 03:45 | 33.19911 | -96.43829 | 7484 ft | 263 kts | 236° |
| 2026-05-08 03:45 | 33.18845 | -96.45622 | 7235 ft | 266 kts | 236° |
| 2026-05-08 03:45 | 33.17769 | -96.47425 | 6977 ft | 266 kts | 236° |
| 2026-05-08 03:45 | 33.16687 | -96.49238 | 6726 ft | 265 kts | 236° |
| 2026-05-08 03:46 | 33.15618 | -96.51026 | 6477 ft | 265 kts | 235° |
| 2026-05-08 03:46 | 33.14542 | -96.52825 | 6227 ft | 265 kts | 235° |
| 2026-05-08 03:46 | 33.13478 | -96.54603 | 5979 ft | 265 kts | 235° |
| 2026-05-08 03:46 | 33.12390 | -96.56417 | 5722 ft | 265 kts | 235° |
| 2026-05-08 03:47 | 33.11327 | -96.58189 | 5477 ft | 265 kts | 235° |
| 2026-05-08 03:47 | 33.10247 | -96.59988 | 5222 ft | 264 kts | 234° |
| 2026-05-08 03:47 | 33.09179 | -96.61765 | 4975 ft | 264 kts | 234° |
| 2026-05-08 03:47 | 33.08100 | -96.63560 | 4724 ft | 264 kts | 234° |
| 2026-05-08 03:48 | 33.07016 | -96.65361 | 4478 ft | 265 kts | 233° |
| 2026-05-08 03:48 | 33.05951 | -96.67130 | 4227 ft | 263 kts | 233° |
| 2026-05-08 03:48 | 33.04894 | -96.68884 | 3994 ft | 253 kts | 233° |
| 2026-05-08 03:48 | 33.03885 | -96.70559 | 3766 ft | 243 kts | 233° |
| 2026-05-08 03:49 | 33.02915 | -96.72168 | 3537 ft | 236 kts | 233° |
| 2026-05-08 03:49 | 33.01967 | -96.73740 | 3305 ft | 229 kts | 233° |
| 2026-05-08 03:49 | 33.01051 | -96.75256 | 3071 ft | 225 kts | 233° |
| 2026-05-08 03:49 | 33.00143 | -96.76761 | 2984 ft | 223 kts | 233° |
| 2026-05-08 03:50 | 32.99226 | -96.78277 | 2986 ft | 224 kts | 233° |
| 2026-05-08 03:50 | 32.98314 | -96.79786 | 2988 ft | 224 kts | 233° |
| 2026-05-08 03:50 | 32.97405 | -96.81289 | 2994 ft | 217 kts | 233° |
| 2026-05-08 03:50 | 32.96557 | -96.82692 | 3027 ft | 197 kts | 233° |
| 2026-05-08 03:51 | 32.95755 | -96.83915 | 3006 ft | 183 kts | 227° |
| 2026-05-08 03:51 | 32.94921 | -96.85062 | 2978 ft | 183 kts | 227° |
| 2026-05-08 03:51 | 32.94102 | -96.86193 | 3000 ft | 169 kts | 227° |
| 2026-05-08 03:51 | 32.93354 | -96.87226 | 3023 ft | 161 kts | 227° |
| 2026-05-08 03:52 | 32.92628 | -96.88224 | 3000 ft | 158 kts | 226° |
| 2026-05-08 03:52 | 32.91797 | -96.89047 | 2950 ft | 157 kts | 208° |
| 2026-05-08 03:52 | 32.90795 | -96.89477 | 2729 ft | 144 kts | 186° |
| 2026-05-08 03:52 | 32.89817 | -96.89460 | 2620 ft | 136 kts | 166° |
| 2026-05-08 03:53 | 32.88943 | -96.89053 | 2042 ft | 136 kts | 151° |
| 2026-05-08 03:53 | 32.88157 | -96.88482 | 1521 ft | 130 kts | 137° |
| 2026-05-08 03:53 | 32.87551 | -96.87779 | 1205 ft | 117 kts | 134° |
| 2026-05-08 03:53 | 32.86976 | -96.87102 | 908 ft | 116 kts | 135° |
| 2026-05-08 03:54 | 32.86402 | -96.86449 | 687 ft | 113 kts | 136° |
| 2026-05-08 03:54 | 32.85832 | -96.85799 | 542 ft | 113 kts | 135° |
| 2026-05-08 03:54 | 32.85284 | -96.85167 | 485 ft | 97 kts | 135° |
| 2026-05-08 03:54 | 32.84941 | -96.84767 | 488 ft | 50 kts | 136° |
| 2026-05-08 03:55 | 32.84788 | -96.84587 | 489 ft | 14 kts | 126° |
| 2026-05-08 03:55 | 32.84821 | -96.84513 | 490 ft | 3 kts | 40° |
| 2026-05-08 03:55 | 32.84842 | -96.84498 | 490 ft | 0 kts | 14° |
| 2026-05-08 03:56 | 32.84851 | -96.84497 | 490 ft | 1 kts | 352° |
| 2026-05-08 03:56 | 32.84885 | -96.84526 | 490 ft | 10 kts | 319° |
| 2026-05-08 03:56 | 32.84937 | -96.84516 | 490 ft | 10 kts | 48° |
| 2026-05-08 03:56 | 32.84945 | -96.84450 | 491 ft | 7 kts | 108° |
| 2026-05-08 03:57 | 32.84927 | -96.84408 | 491 ft | 4 kts | 134° |
| 2026-05-08 03:57 | 32.84921 | -96.84402 | 492 ft | 0 kts | 136° |